sensor_id;sensor_type;location;lat;lon;timestamp;P1;durP1;ratioP1;P2;durP2;ratioP2
9260;SDS011;4667;42.726;23.252;2023-08-24T00:00:51;13.23;;;11.77;;
9260;SDS011;4667;42.726;23.252;2023-08-24T00:03:18;16.23;;;12.10;;
9260;SDS011;4667;42.726;23.252;2023-08-24T00:05:46;15.45;;;12.55;;
9260;SDS011;4667;42.726;23.252;2023-08-24T00:08:13;13.15;;;11.60;;
9260;SDS011;4667;42.726;23.252;2023-08-24T00:10:42;14.45;;;12.27;;
9260;SDS011;4667;42.726;23.252;2023-08-24T00:13:11;13.38;;;11.98;;
9260;SDS011;4667;42.726;23.252;2023-08-24T00:15:38;14.30;;;12.80;;
9260;SDS011;4667;42.726;23.252;2023-08-24T00:18:05;14.75;;;12.45;;
9260;SDS011;4667;42.726;23.252;2023-08-24T00:20:32;12.55;;;11.25;;
9260;SDS011;4667;42.726;23.252;2023-08-24T00:22:59;13.75;;;11.95;;
9260;SDS011;4667;42.726;23.252;2023-08-24T00:25:26;17.08;;;11.75;;
9260;SDS011;4667;42.726;23.252;2023-08-24T00:27:54;14.25;;;11.60;;
9260;SDS011;4667;42.726;23.252;2023-08-24T00:30:21;12.85;;;11.00;;
9260;SDS011;4667;42.726;23.252;2023-08-24T00:32:49;12.55;;;11.25;;
9260;SDS011;4667;42.726;23.252;2023-08-24T00:35:16;13.38;;;12.15;;
9260;SDS011;4667;42.726;23.252;2023-08-24T00:37:43;13.20;;;11.27;;
9260;SDS011;4667;42.726;23.252;2023-08-24T00:40:10;13.70;;;12.32;;
9260;SDS011;4667;42.726;23.252;2023-08-24T00:42:37;13.98;;;12.48;;
9260;SDS011;4667;42.726;23.252;2023-08-24T00:45:07;14.73;;;11.80;;
9260;SDS011;4667;42.726;23.252;2023-08-24T00:47:35;13.10;;;11.70;;
9260;SDS011;4667;42.726;23.252;2023-08-24T00:50:03;13.80;;;12.40;;
9260;SDS011;4667;42.726;23.252;2023-08-24T00:52:31;14.65;;;12.80;;
9260;SDS011;4667;42.726;23.252;2023-08-24T00:54:59;14.38;;;12.88;;
9260;SDS011;4667;42.726;23.252;2023-08-24T00:57:26;18.17;;;13.90;;
9260;SDS011;4667;42.726;23.252;2023-08-24T00:59:54;17.20;;;14.38;;
9260;SDS011;4667;42.726;23.252;2023-08-24T01:02:23;17.17;;;13.95;;
9260;SDS011;4667;42.726;23.252;2023-08-24T01:04:50;17.60;;;15.00;;
9260;SDS011;4667;42.726;23.252;2023-08-24T01:07:17;20.48;;;16.98;;
9260;SDS011;4667;42.726;23.252;2023-08-24T01:09:44;20.35;;;17.90;;
9260;SDS011;4667;42.726;23.252;2023-08-24T01:12:13;19.48;;;16.60;;
9260;SDS011;4667;42.726;23.252;2023-08-24T01:14:53;23.50;;;18.55;;
9260;SDS011;4667;42.726;23.252;2023-08-24T01:17:31;18.27;;;16.38;;
9260;SDS011;4667;42.726;23.252;2023-08-24T01:20:00;18.48;;;15.40;;
9260;SDS011;4667;42.726;23.252;2023-08-24T01:22:32;19.85;;;16.00;;
9260;SDS011;4667;42.726;23.252;2023-08-24T01:25:00;16.83;;;14.48;;
9260;SDS011;4667;42.726;23.252;2023-08-24T01:27:34;16.15;;;14.45;;
9260;SDS011;4667;42.726;23.252;2023-08-24T01:30:02;15.35;;;13.68;;
9260;SDS011;4667;42.726;23.252;2023-08-24T01:32:30;17.20;;;13.95;;
9260;SDS011;4667;42.726;23.252;2023-08-24T01:34:58;16.10;;;14.50;;
9260;SDS011;4667;42.726;23.252;2023-08-24T01:37:24;17.50;;;14.20;;
9260;SDS011;4667;42.726;23.252;2023-08-24T01:39:54;14.77;;;12.68;;
9260;SDS011;4667;42.726;23.252;2023-08-24T01:42:35;15.25;;;13.30;;
9260;SDS011;4667;42.726;23.252;2023-08-24T01:45:04;16.77;;;14.20;;
9260;SDS011;4667;42.726;23.252;2023-08-24T01:47:34;16.20;;;13.48;;
9260;SDS011;4667;42.726;23.252;2023-08-24T01:50:03;15.90;;;13.68;;
9260;SDS011;4667;42.726;23.252;2023-08-24T01:52:31;14.65;;;13.10;;
9260;SDS011;4667;42.726;23.252;2023-08-24T01:54:58;14.98;;;13.45;;
9260;SDS011;4667;42.726;23.252;2023-08-24T01:57:25;17.40;;;13.80;;
9260;SDS011;4667;42.726;23.252;2023-08-24T01:59:53;15.50;;;13.52;;
9260;SDS011;4667;42.726;23.252;2023-08-24T02:02:20;17.05;;;13.52;;
9260;SDS011;4667;42.726;23.252;2023-08-24T02:04:47;16.63;;;13.18;;
9260;SDS011;4667;42.726;23.252;2023-08-24T02:07:14;14.52;;;13.13;;
9260;SDS011;4667;42.726;23.252;2023-08-24T02:09:40;14.20;;;12.90;;
9260;SDS011;4667;42.726;23.252;2023-08-24T02:12:07;16.00;;;13.45;;
9260;SDS011;4667;42.726;23.252;2023-08-24T02:14:34;14.73;;;13.23;;
9260;SDS011;4667;42.726;23.252;2023-08-24T02:17:02;15.48;;;13.85;;
9260;SDS011;4667;42.726;23.252;2023-08-24T02:19:29;16.92;;;13.70;;
9260;SDS011;4667;42.726;23.252;2023-08-24T02:21:56;14.50;;;13.00;;
9260;SDS011;4667;42.726;23.252;2023-08-24T02:24:23;15.05;;;13.65;;
9260;SDS011;4667;42.726;23.252;2023-08-24T02:26:49;15.70;;;14.07;;
9260;SDS011;4667;42.726;23.252;2023-08-24T02:29:16;16.55;;;14.80;;
9260;SDS011;4667;42.726;23.252;2023-08-24T02:31:43;16.05;;;14.40;;
9260;SDS011;4667;42.726;23.252;2023-08-24T02:34:11;20.67;;;13.93;;
9260;SDS011;4667;42.726;23.252;2023-08-24T02:36:38;14.10;;;12.70;;
9260;SDS011;4667;42.726;23.252;2023-08-24T02:39:04;18.02;;;14.75;;
9260;SDS011;4667;42.726;23.252;2023-08-24T02:41:33;15.68;;;13.48;;
9260;SDS011;4667;42.726;23.252;2023-08-24T02:44:00;15.57;;;13.98;;
9260;SDS011;4667;42.726;23.252;2023-08-24T02:46:27;15.75;;;14.15;;
9260;SDS011;4667;42.726;23.252;2023-08-24T02:48:54;19.90;;;14.70;;
9260;SDS011;4667;42.726;23.252;2023-08-24T02:51:22;16.27;;;14.68;;
9260;SDS011;4667;42.726;23.252;2023-08-24T02:53:49;18.48;;;13.00;;
9260;SDS011;4667;42.726;23.252;2023-08-24T02:56:17;14.90;;;13.32;;
9260;SDS011;4667;42.726;23.252;2023-08-24T02:58:44;15.63;;;13.77;;
9260;SDS011;4667;42.726;23.252;2023-08-24T03:01:10;14.77;;;13.43;;
9260;SDS011;4667;42.726;23.252;2023-08-24T03:03:37;16.58;;;14.43;;
9260;SDS011;4667;42.726;23.252;2023-08-24T03:06:05;15.20;;;13.60;;
9260;SDS011;4667;42.726;23.252;2023-08-24T03:08:35;15.70;;;13.52;;
9260;SDS011;4667;42.726;23.252;2023-08-24T03:11:02;16.75;;;13.82;;
9260;SDS011;4667;42.726;23.252;2023-08-24T03:13:31;17.33;;;14.07;;
9260;SDS011;4667;42.726;23.252;2023-08-24T03:16:02;14.95;;;13.40;;
9260;SDS011;4667;42.726;23.252;2023-08-24T03:18:30;14.48;;;12.98;;
9260;SDS011;4667;42.726;23.252;2023-08-24T03:21:08;14.85;;;13.35;;
9260;SDS011;4667;42.726;23.252;2023-08-24T03:23:36;16.15;;;14.43;;
9260;SDS011;4667;42.726;23.252;2023-08-24T03:26:03;18.42;;;13.35;;
9260;SDS011;4667;42.726;23.252;2023-08-24T03:28:30;15.90;;;14.23;;
9260;SDS011;4667;42.726;23.252;2023-08-24T03:30:56;17.33;;;14.32;;
9260;SDS011;4667;42.726;23.252;2023-08-24T03:33:26;16.60;;;14.98;;
9260;SDS011;4667;42.726;23.252;2023-08-24T03:35:53;16.08;;;14.38;;
9260;SDS011;4667;42.726;23.252;2023-08-24T03:38:20;16.60;;;14.88;;
9260;SDS011;4667;42.726;23.252;2023-08-24T03:40:49;17.98;;;15.20;;
9260;SDS011;4667;42.726;23.252;2023-08-24T03:43:15;16.95;;;13.32;;
9260;SDS011;4667;42.726;23.252;2023-08-24T03:45:42;17.05;;;13.85;;
9260;SDS011;4667;42.726;23.252;2023-08-24T03:48:09;18.50;;;14.25;;
9260;SDS011;4667;42.726;23.252;2023-08-24T03:50:36;16.83;;;13.98;;
9260;SDS011;4667;42.726;23.252;2023-08-24T03:53:03;15.35;;;13.68;;
9260;SDS011;4667;42.726;23.252;2023-08-24T03:55:30;15.60;;;13.88;;
9260;SDS011;4667;42.726;23.252;2023-08-24T03:57:59;16.77;;;14.98;;
9260;SDS011;4667;42.726;23.252;2023-08-24T04:00:26;17.10;;;15.30;;
9260;SDS011;4667;42.726;23.252;2023-08-24T04:02:53;14.18;;;12.77;;
9260;SDS011;4667;42.726;23.252;2023-08-24T04:05:19;16.35;;;13.15;;
9260;SDS011;4667;42.726;23.252;2023-08-24T04:07:46;15.70;;;14.10;;
9260;SDS011;4667;42.726;23.252;2023-08-24T04:10:13;16.85;;;15.07;;
9260;SDS011;4667;42.726;23.252;2023-08-24T04:12:40;15.90;;;14.35;;
9260;SDS011;4667;42.726;23.252;2023-08-24T04:15:08;17.00;;;13.95;;
9260;SDS011;4667;42.726;23.252;2023-08-24T04:17:36;18.40;;;14.18;;
9260;SDS011;4667;42.726;23.252;2023-08-24T04:20:03;16.00;;;14.23;;
9260;SDS011;4667;42.726;23.252;2023-08-24T04:22:31;19.23;;;15.90;;
9260;SDS011;4667;42.726;23.252;2023-08-24T04:24:58;22.85;;;16.50;;
9260;SDS011;4667;42.726;23.252;2023-08-24T04:27:25;16.10;;;14.52;;
9260;SDS011;4667;42.726;23.252;2023-08-24T04:29:52;17.83;;;14.60;;
9260;SDS011;4667;42.726;23.252;2023-08-24T04:32:20;20.00;;;15.38;;
9260;SDS011;4667;42.726;23.252;2023-08-24T04:34:48;20.40;;;14.45;;
9260;SDS011;4667;42.726;23.252;2023-08-24T04:37:14;20.40;;;14.95;;
9260;SDS011;4667;42.726;23.252;2023-08-24T04:39:41;18.00;;;14.82;;
9260;SDS011;4667;42.726;23.252;2023-08-24T04:42:08;20.80;;;15.32;;
9260;SDS011;4667;42.726;23.252;2023-08-24T04:44:35;18.80;;;15.68;;
9260;SDS011;4667;42.726;23.252;2023-08-24T04:47:02;23.02;;;15.57;;
9260;SDS011;4667;42.726;23.252;2023-08-24T04:49:30;23.25;;;14.45;;
9260;SDS011;4667;42.726;23.252;2023-08-24T04:51:57;15.73;;;14.02;;
9260;SDS011;4667;42.726;23.252;2023-08-24T04:54:24;18.13;;;14.43;;
9260;SDS011;4667;42.726;23.252;2023-08-24T04:56:51;18.23;;;14.27;;
9260;SDS011;4667;42.726;23.252;2023-08-24T04:59:17;17.10;;;14.95;;
9260;SDS011;4667;42.726;23.252;2023-08-24T05:01:44;20.95;;;14.32;;
9260;SDS011;4667;42.726;23.252;2023-08-24T05:04:11;17.50;;;15.07;;
9260;SDS011;4667;42.726;23.252;2023-08-24T05:06:39;17.15;;;15.35;;
9260;SDS011;4667;42.726;23.252;2023-08-24T05:09:06;16.17;;;14.55;;
9260;SDS011;4667;42.726;23.252;2023-08-24T05:11:33;18.83;;;14.50;;
9260;SDS011;4667;42.726;23.252;2023-08-24T05:14:00;17.10;;;14.50;;
9260;SDS011;4667;42.726;23.252;2023-08-24T05:16:26;24.10;;;14.93;;
9260;SDS011;4667;42.726;23.252;2023-08-24T05:18:54;20.73;;;14.00;;
9260;SDS011;4667;42.726;23.252;2023-08-24T05:21:20;17.50;;;14.55;;
9260;SDS011;4667;42.726;23.252;2023-08-24T05:23:49;19.38;;;13.88;;
9260;SDS011;4667;42.726;23.252;2023-08-24T05:26:16;19.27;;;14.68;;
9260;SDS011;4667;42.726;23.252;2023-08-24T05:28:47;20.85;;;14.30;;
9260;SDS011;4667;42.726;23.252;2023-08-24T05:31:14;18.48;;;14.55;;
9260;SDS011;4667;42.726;23.252;2023-08-24T05:33:40;16.48;;;14.15;;
9260;SDS011;4667;42.726;23.252;2023-08-24T05:36:07;20.17;;;14.70;;
9260;SDS011;4667;42.726;23.252;2023-08-24T05:38:34;15.98;;;13.73;;
9260;SDS011;4667;42.726;23.252;2023-08-24T05:41:03;16.67;;;14.32;;
9260;SDS011;4667;42.726;23.252;2023-08-24T05:43:30;21.13;;;14.88;;
9260;SDS011;4667;42.726;23.252;2023-08-24T05:45:57;18.02;;;14.95;;
9260;SDS011;4667;42.726;23.252;2023-08-24T05:48:23;16.50;;;14.73;;
9260;SDS011;4667;42.726;23.252;2023-08-24T05:50:50;16.52;;;13.77;;
9260;SDS011;4667;42.726;23.252;2023-08-24T05:53:17;19.95;;;14.52;;
9260;SDS011;4667;42.726;23.252;2023-08-24T05:55:44;20.40;;;15.63;;
9260;SDS011;4667;42.726;23.252;2023-08-24T05:58:12;19.63;;;15.77;;
9260;SDS011;4667;42.726;23.252;2023-08-24T06:00:39;20.02;;;15.65;;
9260;SDS011;4667;42.726;23.252;2023-08-24T06:03:07;18.13;;;14.48;;
9260;SDS011;4667;42.726;23.252;2023-08-24T06:05:34;16.77;;;14.48;;
9260;SDS011;4667;42.726;23.252;2023-08-24T06:08:01;18.17;;;14.68;;
9260;SDS011;4667;42.726;23.252;2023-08-24T06:10:28;30.30;;;14.38;;
9260;SDS011;4667;42.726;23.252;2023-08-24T06:12:56;19.77;;;15.68;;
9260;SDS011;4667;42.726;23.252;2023-08-24T06:15:25;21.90;;;15.95;;
9260;SDS011;4667;42.726;23.252;2023-08-24T06:17:53;24.63;;;15.65;;
9260;SDS011;4667;42.726;23.252;2023-08-24T06:20:19;22.90;;;15.48;;
9260;SDS011;4667;42.726;23.252;2023-08-24T06:22:46;18.98;;;16.30;;
9260;SDS011;4667;42.726;23.252;2023-08-24T06:25:13;19.08;;;15.15;;
9260;SDS011;4667;42.726;23.252;2023-08-24T06:27:40;18.33;;;15.00;;
9260;SDS011;4667;42.726;23.252;2023-08-24T06:30:07;18.10;;;15.13;;
9260;SDS011;4667;42.726;23.252;2023-08-24T06:32:35;20.08;;;14.05;;
9260;SDS011;4667;42.726;23.252;2023-08-24T06:35:02;24.25;;;15.23;;
9260;SDS011;4667;42.726;23.252;2023-08-24T06:37:31;18.30;;;14.30;;
9260;SDS011;4667;42.726;23.252;2023-08-24T06:39:59;19.60;;;16.45;;
9260;SDS011;4667;42.726;23.252;2023-08-24T06:42:29;22.38;;;15.77;;
9260;SDS011;4667;42.726;23.252;2023-08-24T06:44:56;18.23;;;15.45;;
9260;SDS011;4667;42.726;23.252;2023-08-24T06:47:23;19.70;;;15.23;;
9260;SDS011;4667;42.726;23.252;2023-08-24T06:49:51;20.48;;;15.90;;
9260;SDS011;4667;42.726;23.252;2023-08-24T06:52:18;23.38;;;16.02;;
9260;SDS011;4667;42.726;23.252;2023-08-24T06:54:45;17.20;;;15.07;;
9260;SDS011;4667;42.726;23.252;2023-08-24T06:57:13;16.23;;;14.50;;
9260;SDS011;4667;42.726;23.252;2023-08-24T06:59:40;19.55;;;15.57;;
9260;SDS011;4667;42.726;23.252;2023-08-24T07:02:10;20.77;;;17.23;;
9260;SDS011;4667;42.726;23.252;2023-08-24T07:04:37;18.17;;;14.82;;
9260;SDS011;4667;42.726;23.252;2023-08-24T07:07:06;18.27;;;15.18;;
9260;SDS011;4667;42.726;23.252;2023-08-24T07:09:33;18.50;;;14.80;;
9260;SDS011;4667;42.726;23.252;2023-08-24T07:12:00;17.50;;;14.35;;
9260;SDS011;4667;42.726;23.252;2023-08-24T07:14:27;16.85;;;14.77;;
9260;SDS011;4667;42.726;23.252;2023-08-24T07:16:54;21.02;;;15.63;;
9260;SDS011;4667;42.726;23.252;2023-08-24T07:19:20;23.40;;;14.00;;
9260;SDS011;4667;42.726;23.252;2023-08-24T07:21:48;15.93;;;14.32;;
9260;SDS011;4667;42.726;23.252;2023-08-24T07:24:16;15.95;;;14.25;;
9260;SDS011;4667;42.726;23.252;2023-08-24T07:26:44;15.15;;;13.48;;
9260;SDS011;4667;42.726;23.252;2023-08-24T07:29:10;18.55;;;13.77;;
9260;SDS011;4667;42.726;23.252;2023-08-24T07:31:37;16.83;;;13.15;;
9260;SDS011;4667;42.726;23.252;2023-08-24T07:34:04;17.83;;;12.82;;
9260;SDS011;4667;42.726;23.252;2023-08-24T07:36:31;14.48;;;13.00;;
9260;SDS011;4667;42.726;23.252;2023-08-24T07:38:57;14.40;;;12.90;;
9260;SDS011;4667;42.726;23.252;2023-08-24T07:41:26;17.58;;;13.50;;
9260;SDS011;4667;42.726;23.252;2023-08-24T07:43:52;18.38;;;13.48;;
9260;SDS011;4667;42.726;23.252;2023-08-24T07:46:20;17.58;;;14.60;;
9260;SDS011;4667;42.726;23.252;2023-08-24T07:48:47;17.92;;;13.43;;
9260;SDS011;4667;42.726;23.252;2023-08-24T07:51:14;19.25;;;16.92;;
9260;SDS011;4667;42.726;23.252;2023-08-24T07:53:41;21.20;;;13.50;;
9260;SDS011;4667;42.726;23.252;2023-08-24T07:56:08;22.15;;;15.27;;
9260;SDS011;4667;42.726;23.252;2023-08-24T07:58:37;22.05;;;14.02;;
9260;SDS011;4667;42.726;23.252;2023-08-24T08:01:03;18.15;;;12.50;;
9260;SDS011;4667;42.726;23.252;2023-08-24T08:03:30;14.43;;;12.85;;
9260;SDS011;4667;42.726;23.252;2023-08-24T08:05:57;14.40;;;12.70;;
9260;SDS011;4667;42.726;23.252;2023-08-24T08:08:24;17.63;;;12.13;;
9260;SDS011;4667;42.726;23.252;2023-08-24T08:10:57;13.57;;;12.25;;
9260;SDS011;4667;42.726;23.252;2023-08-24T08:13:24;14.80;;;12.43;;
9260;SDS011;4667;42.726;23.252;2023-08-24T08:15:52;15.20;;;12.30;;
9260;SDS011;4667;42.726;23.252;2023-08-24T08:18:19;14.63;;;11.18;;
9260;SDS011;4667;42.726;23.252;2023-08-24T08:20:50;15.63;;;12.02;;
9260;SDS011;4667;42.726;23.252;2023-08-24T08:23:17;19.20;;;13.25;;
9260;SDS011;4667;42.726;23.252;2023-08-24T08:25:44;13.82;;;12.15;;
9260;SDS011;4667;42.726;23.252;2023-08-24T08:28:11;15.57;;;12.68;;
9260;SDS011;4667;42.726;23.252;2023-08-24T08:30:37;13.60;;;12.13;;
9260;SDS011;4667;42.726;23.252;2023-08-24T08:33:06;12.73;;;10.98;;
9260;SDS011;4667;42.726;23.252;2023-08-24T08:35:33;13.77;;;10.90;;
9260;SDS011;4667;42.726;23.252;2023-08-24T08:38:02;13.23;;;12.02;;
9260;SDS011;4667;42.726;23.252;2023-08-24T08:40:29;11.95;;;10.57;;
9260;SDS011;4667;42.726;23.252;2023-08-24T08:42:56;18.40;;;16.60;;
9260;SDS011;4667;42.726;23.252;2023-08-24T08:45:24;21.85;;;17.05;;
9260;SDS011;4667;42.726;23.252;2023-08-24T08:47:53;12.75;;;10.43;;
9260;SDS011;4667;42.726;23.252;2023-08-24T08:50:25;11.98;;;10.93;;
9260;SDS011;4667;42.726;23.252;2023-08-24T08:52:57;12.27;;;10.30;;
9260;SDS011;4667;42.726;23.252;2023-08-24T08:55:29;12.38;;;10.98;;
9260;SDS011;4667;42.726;23.252;2023-08-24T08:57:59;13.30;;;11.15;;
9260;SDS011;4667;42.726;23.252;2023-08-24T09:00:31;16.45;;;11.20;;
9260;SDS011;4667;42.726;23.252;2023-08-24T09:02:59;13.07;;;11.43;;
9260;SDS011;4667;42.726;23.252;2023-08-24T09:05:29;11.32;;;10.07;;
9260;SDS011;4667;42.726;23.252;2023-08-24T09:07:56;14.07;;;11.15;;
9260;SDS011;4667;42.726;23.252;2023-08-24T09:10:24;12.75;;;11.55;;
9260;SDS011;4667;42.726;23.252;2023-08-24T09:12:51;19.05;;;11.57;;
9260;SDS011;4667;42.726;23.252;2023-08-24T09:15:23;13.35;;;12.00;;
9260;SDS011;4667;42.726;23.252;2023-08-24T09:17:53;13.80;;;11.65;;
9260;SDS011;4667;42.726;23.252;2023-08-24T09:20:21;12.52;;;11.38;;
9260;SDS011;4667;42.726;23.252;2023-08-24T09:22:49;13.88;;;11.82;;
9260;SDS011;4667;42.726;23.252;2023-08-24T09:25:19;12.65;;;11.55;;
9260;SDS011;4667;42.726;23.252;2023-08-24T09:27:46;13.32;;;12.02;;
9260;SDS011;4667;42.726;23.252;2023-08-24T09:30:22;12.50;;;11.32;;
9260;SDS011;4667;42.726;23.252;2023-08-24T09:32:49;14.98;;;11.82;;
9260;SDS011;4667;42.726;23.252;2023-08-24T09:35:17;14.65;;;13.15;;
9260;SDS011;4667;42.726;23.252;2023-08-24T09:37:50;16.67;;;15.02;;
9260;SDS011;4667;42.726;23.252;2023-08-24T09:40:23;14.45;;;12.55;;
9260;SDS011;4667;42.726;23.252;2023-08-24T09:42:50;13.73;;;12.43;;
9260;SDS011;4667;42.726;23.252;2023-08-24T09:45:17;13.88;;;12.52;;
9260;SDS011;4667;42.726;23.252;2023-08-24T09:47:49;14.15;;;12.63;;
9260;SDS011;4667;42.726;23.252;2023-08-24T09:50:21;12.68;;;11.15;;
9260;SDS011;4667;42.726;23.252;2023-08-24T09:52:50;17.17;;;11.18;;
9260;SDS011;4667;42.726;23.252;2023-08-24T09:55:20;13.77;;;12.20;;
9260;SDS011;4667;42.726;23.252;2023-08-24T09:57:48;11.95;;;10.88;;
9260;SDS011;4667;42.726;23.252;2023-08-24T10:00:19;13.82;;;10.60;;
9260;SDS011;4667;42.726;23.252;2023-08-24T10:02:49;16.80;;;10.85;;
9260;SDS011;4667;42.726;23.252;2023-08-24T10:05:19;11.82;;;10.73;;
9260;SDS011;4667;42.726;23.252;2023-08-24T10:07:48;12.23;;;11.20;;
9260;SDS011;4667;42.726;23.252;2023-08-24T10:10:19;12.82;;;11.63;;
9260;SDS011;4667;42.726;23.252;2023-08-24T10:12:50;11.68;;;10.65;;
9260;SDS011;4667;42.726;23.252;2023-08-24T10:15:18;11.45;;;10.35;;
9260;SDS011;4667;42.726;23.252;2023-08-24T10:17:47;13.25;;;11.75;;
9260;SDS011;4667;42.726;23.252;2023-08-24T10:20:16;13.15;;;11.82;;
9260;SDS011;4667;42.726;23.252;2023-08-24T10:22:46;12.98;;;10.60;;
9260;SDS011;4667;42.726;23.252;2023-08-24T10:25:17;11.73;;;10.60;;
9260;SDS011;4667;42.726;23.252;2023-08-24T10:27:44;11.45;;;10.32;;
9260;SDS011;4667;42.726;23.252;2023-08-24T10:30:13;10.55;;;9.55;;
9260;SDS011;4667;42.726;23.252;2023-08-24T10:32:41;11.93;;;9.88;;
9260;SDS011;4667;42.726;23.252;2023-08-24T10:35:11;10.68;;;9.40;;
9260;SDS011;4667;42.726;23.252;2023-08-24T10:37:40;10.18;;;9.38;;
9260;SDS011;4667;42.726;23.252;2023-08-24T10:40:13;16.70;;;14.25;;
9260;SDS011;4667;42.726;23.252;2023-08-24T10:42:45;11.88;;;9.57;;
9260;SDS011;4667;42.726;23.252;2023-08-24T10:45:13;15.77;;;9.80;;
9260;SDS011;4667;42.726;23.252;2023-08-24T10:47:43;13.57;;;8.98;;
9260;SDS011;4667;42.726;23.252;2023-08-24T10:50:12;16.00;;;10.00;;
9260;SDS011;4667;42.726;23.252;2023-08-24T10:52:40;15.77;;;9.55;;
9260;SDS011;4667;42.726;23.252;2023-08-24T10:55:21;11.55;;;9.90;;
9260;SDS011;4667;42.726;23.252;2023-08-24T10:57:56;12.25;;;9.63;;
9260;SDS011;4667;42.726;23.252;2023-08-24T11:00:25;11.20;;;9.50;;
9260;SDS011;4667;42.726;23.252;2023-08-24T11:02:53;14.68;;;10.55;;
9260;SDS011;4667;42.726;23.252;2023-08-24T11:05:20;10.27;;;9.27;;
9260;SDS011;4667;42.726;23.252;2023-08-24T11:07:53;13.60;;;8.57;;
9260;SDS011;4667;42.726;23.252;2023-08-24T11:10:21;9.75;;;8.38;;
9260;SDS011;4667;42.726;23.252;2023-08-24T11:13:06;9.13;;;8.23;;
9260;SDS011;4667;42.726;23.252;2023-08-24T11:15:34;10.38;;;7.50;;
9260;SDS011;4667;42.726;23.252;2023-08-24T11:18:22;10.27;;;7.55;;
9260;SDS011;4667;42.726;23.252;2023-08-24T11:20:51;9.70;;;7.80;;
9260;SDS011;4667;42.726;23.252;2023-08-24T11:23:19;8.05;;;7.25;;
9260;SDS011;4667;42.726;23.252;2023-08-24T11:25:48;9.90;;;8.05;;
9260;SDS011;4667;42.726;23.252;2023-08-24T11:28:18;10.73;;;7.70;;
9260;SDS011;4667;42.726;23.252;2023-08-24T11:30:46;9.63;;;8.13;;
9260;SDS011;4667;42.726;23.252;2023-08-24T11:33:13;12.52;;;8.25;;
9260;SDS011;4667;42.726;23.252;2023-08-24T11:35:41;11.05;;;8.63;;
9260;SDS011;4667;42.726;23.252;2023-08-24T11:38:10;15.48;;;8.45;;
9260;SDS011;4667;42.726;23.252;2023-08-24T11:40:37;12.10;;;8.02;;
9260;SDS011;4667;42.726;23.252;2023-08-24T11:43:04;11.25;;;8.48;;
9260;SDS011;4667;42.726;23.252;2023-08-24T11:45:35;11.35;;;9.10;;
9260;SDS011;4667;42.726;23.252;2023-08-24T11:48:05;13.02;;;8.02;;
9260;SDS011;4667;42.726;23.252;2023-08-24T11:50:33;11.88;;;8.40;;
9260;SDS011;4667;42.726;23.252;2023-08-24T11:53:00;10.73;;;9.25;;
9260;SDS011;4667;42.726;23.252;2023-08-24T11:55:27;10.77;;;9.68;;
9260;SDS011;4667;42.726;23.252;2023-08-24T11:57:54;10.73;;;9.60;;
9260;SDS011;4667;42.726;23.252;2023-08-24T12:00:21;12.27;;;9.52;;
9260;SDS011;4667;42.726;23.252;2023-08-24T12:02:50;12.30;;;9.35;;
9260;SDS011;4667;42.726;23.252;2023-08-24T12:05:21;11.90;;;9.55;;
9260;SDS011;4667;42.726;23.252;2023-08-24T12:07:49;13.40;;;10.88;;
9260;SDS011;4667;42.726;23.252;2023-08-24T12:10:17;28.85;;;12.68;;
9260;SDS011;4667;42.726;23.252;2023-08-24T12:12:44;13.48;;;10.25;;
9260;SDS011;4667;42.726;23.252;2023-08-24T12:15:17;12.57;;;10.88;;
9260;SDS011;4667;42.726;23.252;2023-08-24T12:17:45;14.43;;;10.23;;
9260;SDS011;4667;42.726;23.252;2023-08-24T12:20:18;12.18;;;11.02;;
9260;SDS011;4667;42.726;23.252;2023-08-24T12:22:50;17.77;;;12.57;;
9260;SDS011;4667;42.726;23.252;2023-08-24T12:25:18;13.43;;;12.13;;
9260;SDS011;4667;42.726;23.252;2023-08-24T12:27:45;13.77;;;12.02;;
9260;SDS011;4667;42.726;23.252;2023-08-24T12:30:12;14.15;;;10.73;;
9260;SDS011;4667;42.726;23.252;2023-08-24T12:32:42;15.48;;;12.32;;
9260;SDS011;4667;42.726;23.252;2023-08-24T12:35:09;16.60;;;14.82;;
9260;SDS011;4667;42.726;23.252;2023-08-24T12:37:37;13.52;;;12.13;;
9260;SDS011;4667;42.726;23.252;2023-08-24T12:40:05;15.05;;;12.32;;
9260;SDS011;4667;42.726;23.252;2023-08-24T12:42:33;13.43;;;12.02;;
9260;SDS011;4667;42.726;23.252;2023-08-24T12:45:00;13.38;;;11.98;;
9260;SDS011;4667;42.726;23.252;2023-08-24T12:47:29;17.38;;;11.27;;
9260;SDS011;4667;42.726;23.252;2023-08-24T12:49:56;12.32;;;11.00;;
9260;SDS011;4667;42.726;23.252;2023-08-24T12:52:23;13.73;;;11.25;;
9260;SDS011;4667;42.726;23.252;2023-08-24T12:54:51;20.98;;;11.40;;
9260;SDS011;4667;42.726;23.252;2023-08-24T12:57:18;12.38;;;10.55;;
9260;SDS011;4667;42.726;23.252;2023-08-24T12:59:44;12.18;;;10.88;;
9260;SDS011;4667;42.726;23.252;2023-08-24T13:02:12;16.23;;;11.90;;
9260;SDS011;4667;42.726;23.252;2023-08-24T13:04:39;13.07;;;11.65;;
9260;SDS011;4667;42.726;23.252;2023-08-24T13:07:06;15.95;;;10.98;;
9260;SDS011;4667;42.726;23.252;2023-08-24T13:09:34;22.75;;;10.77;;
9260;SDS011;4667;42.726;23.252;2023-08-24T13:12:02;11.02;;;10.00;;
9260;SDS011;4667;42.726;23.252;2023-08-24T13:14:29;12.75;;;10.32;;
9260;SDS011;4667;42.726;23.252;2023-08-24T13:16:56;15.82;;;9.77;;
9260;SDS011;4667;42.726;23.252;2023-08-24T13:19:23;14.60;;;10.30;;
9260;SDS011;4667;42.726;23.252;2023-08-24T13:21:49;14.07;;;11.00;;
9260;SDS011;4667;42.726;23.252;2023-08-24T13:24:16;16.73;;;11.13;;
9260;SDS011;4667;42.726;23.252;2023-08-24T13:26:43;19.90;;;10.88;;
9260;SDS011;4667;42.726;23.252;2023-08-24T13:29:11;13.25;;;10.65;;
9260;SDS011;4667;42.726;23.252;2023-08-24T13:31:38;13.85;;;11.20;;
9260;SDS011;4667;42.726;23.252;2023-08-24T13:34:04;12.57;;;10.95;;
9260;SDS011;4667;42.726;23.252;2023-08-24T13:36:32;14.70;;;11.15;;
9260;SDS011;4667;42.726;23.252;2023-08-24T13:38:59;12.27;;;10.60;;
9260;SDS011;4667;42.726;23.252;2023-08-24T13:41:26;12.43;;;11.02;;
9260;SDS011;4667;42.726;23.252;2023-08-24T13:43:53;14.43;;;11.20;;
9260;SDS011;4667;42.726;23.252;2023-08-24T13:46:23;12.30;;;10.88;;
9260;SDS011;4667;42.726;23.252;2023-08-24T13:48:50;13.77;;;11.68;;
9260;SDS011;4667;42.726;23.252;2023-08-24T13:51:17;13.73;;;12.18;;
9260;SDS011;4667;42.726;23.252;2023-08-24T13:53:43;12.13;;;10.82;;
9260;SDS011;4667;42.726;23.252;2023-08-24T13:56:10;16.15;;;11.80;;
9260;SDS011;4667;42.726;23.252;2023-08-24T13:58:37;19.13;;;15.05;;
9260;SDS011;4667;42.726;23.252;2023-08-24T14:01:04;14.57;;;11.05;;
9260;SDS011;4667;42.726;23.252;2023-08-24T14:03:32;15.25;;;11.60;;
9260;SDS011;4667;42.726;23.252;2023-08-24T14:05:59;15.40;;;10.73;;
9260;SDS011;4667;42.726;23.252;2023-08-24T14:08:26;12.95;;;10.68;;
9260;SDS011;4667;42.726;23.252;2023-08-24T14:10:53;12.02;;;10.52;;
9260;SDS011;4667;42.726;23.252;2023-08-24T14:13:20;15.65;;;10.70;;
9260;SDS011;4667;42.726;23.252;2023-08-24T14:15:49;13.00;;;10.70;;
9260;SDS011;4667;42.726;23.252;2023-08-24T14:18:16;14.95;;;10.85;;
9260;SDS011;4667;42.726;23.252;2023-08-24T14:20:44;12.77;;;10.68;;
9260;SDS011;4667;42.726;23.252;2023-08-24T14:23:11;19.63;;;16.65;;
9260;SDS011;4667;42.726;23.252;2023-08-24T14:25:38;13.88;;;12.48;;
9260;SDS011;4667;42.726;23.252;2023-08-24T14:28:05;12.13;;;11.02;;
9260;SDS011;4667;42.726;23.252;2023-08-24T14:30:32;17.88;;;11.20;;
9260;SDS011;4667;42.726;23.252;2023-08-24T14:33:01;13.68;;;10.65;;
9260;SDS011;4667;42.726;23.252;2023-08-24T14:35:28;11.02;;;10.05;;
9260;SDS011;4667;42.726;23.252;2023-08-24T14:37:56;11.90;;;10.52;;
9260;SDS011;4667;42.726;23.252;2023-08-24T14:40:23;14.25;;;11.38;;